地図

経路データ

SID SEASON NUMBER BASIN SUBBASIN NAME ISO_TIME NATURE LAT LON WMO_WIND WMO_PRES WMO_AGENCY TRACK_TYPE DIST2LAND LANDFALL IFLAG USA_AGENCY USA_ATCF_ID USA_LAT USA_LON USA_RECORD USA_STATUS USA_WIND USA_PRES USA_SSHS USA_R34_NE USA_R34_SE USA_R34_SW USA_R34_NW USA_R50_NE USA_R50_SE USA_R50_SW USA_R50_NW USA_R64_NE USA_R64_SE USA_R64_SW USA_R64_NW USA_POCI USA_ROCI USA_RMW USA_EYE TOKYO_LAT TOKYO_LON TOKYO_GRADE TOKYO_WIND TOKYO_PRES TOKYO_R50_DIR TOKYO_R50_LONG TOKYO_R50_SHORT TOKYO_R30_DIR TOKYO_R30_LONG TOKYO_R30_SHORT TOKYO_LAND CMA_LAT CMA_LON CMA_CAT CMA_WIND CMA_PRES HKO_LAT HKO_LON HKO_CAT HKO_WIND HKO_PRES NEWDELHI_LAT NEWDELHI_LON NEWDELHI_GRADE NEWDELHI_WIND NEWDELHI_PRES NEWDELHI_CI NEWDELHI_DP NEWDELHI_POCI REUNION_LAT REUNION_LON REUNION_TYPE REUNION_WIND REUNION_PRES REUNION_TNUM REUNION_CI REUNION_RMW REUNION_R34_NE REUNION_R34_SE REUNION_R34_SW REUNION_R34_NW REUNION_R50_NE REUNION_R50_SE REUNION_R50_SW REUNION_R50_NW REUNION_R64_NE REUNION_R64_SE REUNION_R64_SW REUNION_R64_NW BOM_LAT BOM_LON BOM_TYPE BOM_WIND BOM_PRES BOM_TNUM BOM_CI BOM_RMW BOM_R34_NE BOM_R34_SE BOM_R34_SW BOM_R34_NW BOM_R50_NE BOM_R50_SE BOM_R50_SW BOM_R50_NW BOM_R64_NE BOM_R64_SE BOM_R64_SW BOM_R64_NW BOM_ROCI BOM_POCI BOM_EYE BOM_POS_METHOD BOM_PRES_METHOD NADI_LAT NADI_LON NADI_CAT NADI_WIND NADI_PRES WELLINGTON_LAT WELLINGTON_LON WELLINGTON_WIND WELLINGTON_PRES DS824_LAT DS824_LON DS824_STAGE DS824_WIND DS824_PRES TD9636_LAT TD9636_LON TD9636_STAGE TD9636_WIND TD9636_PRES TD9635_LAT TD9635_LON TD9635_WIND TD9635_PRES TD9635_ROCI NEUMANN_LAT NEUMANN_LON NEUMANN_CLASS NEUMANN_WIND NEUMANN_PRES MLC_LAT MLC_LON MLC_CLASS MLC_WIND MLC_PRES USA_GUST BOM_GUST BOM_GUST_PER REUNION_GUST REUNION_GUST_PER USA_SEAHGT USA_SEARAD_NE USA_SEARAD_SE USA_SEARAD_SW USA_SEARAD_NW STORM_SPEED STORM_DIR
1961199N11314 1961 63 NA NA ANNA 1961-07-17 18:00:00 TS 10.5000 -46.0000 30 hurdat_atl main 907 860 O_____________ hurdat_atl AL011961 10.5000 -46.0000 TD 30 -1 16 274
1961199N11314 1961 63 NA NA ANNA 1961-07-17 21:00:00 TS 10.5504 -46.7900 main 862 815 P_____________ AL011961 10.5504 -46.7900 TD 30 -1 16 274
1961199N11314 1961 63 NA NA ANNA 1961-07-18 00:00:00 TS 10.6000 -47.6000 30 hurdat_atl main 815 761 O_____________ hurdat_atl AL011961 10.6000 -47.6000 TD 30 -1 16 274
1961199N11314 1961 63 NA NA ANNA 1961-07-18 03:00:00 TS 10.6498 -48.4425 main 761 715 P_____________ AL011961 10.6498 -48.4425 TD 30 -1 17 273
1961199N11314 1961 63 NA NA ANNA 1961-07-18 06:00:00 TS 10.7000 -49.3000 30 hurdat_atl main 715 674 O_____________ hurdat_atl AL011961 10.7000 -49.3000 TD 30 -1 17 273
1961199N11314 1961 63 NA NA ANNA 1961-07-18 09:00:00 TS 10.7424 -50.1651 main 669 647 P_____________ AL011961 10.7424 -50.1651 TD 32 -1 17 273
1961199N11314 1961 63 NA NA ANNA 1961-07-18 12:00:00 TS 10.8000 -51.0000 35 hurdat_atl main 647 624 O_____________ hurdat_atl AL011961 10.8000 -51.0000 TS 35 0 16 275
1961199N11314 1961 63 NA NA ANNA 1961-07-18 15:00:00 TS 10.8922 -51.7650 main 619 601 P_____________ AL011961 10.8922 -51.7650 TS 35 0 15 278
1961199N11314 1961 63 NA NA ANNA 1961-07-18 18:00:00 TS 11.0000 -52.5000 35 hurdat_atl main 601 591 O_____________ hurdat_atl AL011961 11.0000 -52.5000 TS 35 0 15 278
1961199N11314 1961 63 NA NA ANNA 1961-07-18 21:00:00 TS 11.0998 -53.2501 main 590 586 P_____________ AL011961 11.0998 -53.2501 TS 37 0 15 278
1961199N11314 1961 63 NA NA ANNA 1961-07-19 00:00:00 TS 11.2000 -54.0000 40 hurdat_atl main 594 593 O_____________ hurdat_atl AL011961 11.2000 -54.0000 TS 40 0 15 278
1961199N11314 1961 63 NA NA ANNA 1961-07-19 03:00:00 TS 11.3073 -54.7500 main 599 540 P_____________ AL011961 11.3073 -54.7500 TS 40 0 15 278
1961199N11314 1961 63 NA NA ANNA 1961-07-19 06:00:00 TS 11.4000 -55.5000 40 hurdat_atl main 540 496 O_____________ hurdat_atl AL011961 11.4000 -55.5000 TS 40 0 15 276
1961199N11314 1961 63 NA NA ANNA 1961-07-19 09:00:00 TS 11.4573 -56.2501 main 491 445 P_____________ AL011961 11.4573 -56.2501 TS 42 0 15 274
1961199N11314 1961 63 NA NA ANNA 1961-07-19 12:00:00 TS 11.5000 -57.0000 45 hurdat_atl main 445 371 O_____________ hurdat_atl AL011961 11.5000 -57.0000 TS 45 0 15 274
1961199N11314 1961 63 NA NA ANNA 1961-07-19 15:00:00 TS 11.5497 -57.7350 main 371 290 P_____________ AL011961 11.5497 -57.7350 TS 45 0 15 274
1961199N11314 1961 63 NA NA ANNA 1961-07-19 18:00:00 TS 11.6000 -58.5000 45 hurdat_atl main 290 211 O_____________ hurdat_atl AL011961 11.6000 -58.5000 TS 45 0 16 274
1961199N11314 1961 63 NA NA ANNA 1961-07-19 21:00:00 TS 11.6498 -59.3275 main 211 142 P_____________ AL011961 11.6498 -59.3275 TS 47 0 17 273
1961199N11314 1961 63 NA CS ANNA 1961-07-20 00:00:00 TS 11.7000 -60.2000 50 hurdat_atl main 142 111 O_____________ hurdat_atl AL011961 11.7000 -60.2000 TS 50 0 17 273
1961199N11314 1961 63 NA CS ANNA 1961-07-20 03:00:00 TS 11.7498 -61.0925 main 111 111 P_____________ AL011961 11.7498 -61.0925 TS 52 0 18 273
1961199N11314 1961 63 NA CS ANNA 1961-07-20 06:00:00 TS 11.8000 -62.0000 55 hurdat_atl main 125 123 O_____________ hurdat_atl AL011961 11.8000 -62.0000 TS 55 0 18 272
1961199N11314 1961 63 NA CS ANNA 1961-07-20 09:00:00 TS 11.8197 -62.9003 main 123 123 P_____________ AL011961 11.8197 -62.9003 TS 57 0 18 273
1961199N11314 1961 63 NA CS ANNA 1961-07-20 12:00:00 TS 11.9000 -63.8000 60 hurdat_atl main 146 146 O_____________ hurdat_atl AL011961 11.9000 -63.8000 TS 60 0 18 280
1961199N11314 1961 63 NA CS ANNA 1961-07-20 15:00:00 TS 12.1196 -64.6924 main 176 176 P_____________ AL011961 12.1196 -64.6924 TS 62 0 18 286
1961199N11314 1961 63 NA CS ANNA 1961-07-20 18:00:00 TS 12.4000 -65.6000 65 999 hurdat_atl main 206 202 O_____________ hurdat_atl AL011961 12.4000 -65.6000 HU 65 999 1 19 287
1961199N11314 1961 63 NA CS ANNA 1961-07-20 21:00:00 TS 12.6647 -66.5350 main 235 219 P_____________ AL011961 12.6647 -66.5350 HU 65 1000 1 19 285
1961199N11314 1961 63 NA CS ANNA 1961-07-21 00:00:00 TS 12.9000 -67.5000 65 1002 hurdat_atl main 214 187 O_____________ hurdat_atl AL011961 12.9000 -67.5000 HU 65 1002 1 20 282
1961199N11314 1961 63 NA CS ANNA 1961-07-21 03:00:00 TS 13.0724 -68.5077 main 187 134 P_____________ AL011961 13.0724 -68.5077 HU 70 997 1 20 279
1961199N11314 1961 63 NA CS ANNA 1961-07-21 06:00:00 TS 13.2000 -69.5000 75 992 hurdat_atl main 130 123 O_____________ hurdat_atl AL011961 13.2000 -69.5000 HU 75 992 1 19 277
1961199N11314 1961 63 NA CS ANNA 1961-07-21 09:00:00 TS 13.3070 -70.4152 main 136 114 P_____________ AL011961 13.3070 -70.4152 HU 77 986 1 18 277
1961199N11314 1961 63 NA CS ANNA 1961-07-21 12:00:00 TS 13.4000 -71.3000 80 980 hurdat_atl main 114 111 O_____________ hurdat_atl AL011961 13.4000 -71.3000 HU 80 980 1 18 277
1961199N11314 1961 63 NA CS ANNA 1961-07-21 15:00:00 TS 13.5073 -72.2075 main 134 134 P_____________ AL011961 13.5073 -72.2075 HU 80 980 1 18 277
1961199N11314 1961 63 NA CS ANNA 1961-07-21 18:00:00 TS 13.6000 -73.1000 80 981 hurdat_atl main 184 184 O_____________ hurdat_atl AL011961 13.6000 -73.1000 HU 80 981 1 17 275
1961199N11314 1961 63 NA CS ANNA 1961-07-21 21:00:00 TS 13.6421 -73.9578 main 249 249 P_____________ AL011961 13.6421 -73.9578 HU 80 982 1 17 273
1961199N11314 1961 63 NA CS ANNA 1961-07-22 00:00:00 TS 13.7000 -74.8000 80 984 hurdat_atl main 287 287 O_____________ hurdat_atl AL011961 13.7000 -74.8000 HU 80 984 1 17 276
1961199N11314 1961 63 NA CS ANNA 1961-07-22 03:00:00 TS 13.8197 -75.6501 main 325 325 P_____________ AL011961 13.8197 -75.6501 HU 80 983 1 17 280
1961199N11314 1961 63 NA CS ANNA 1961-07-22 06:00:00 TS 14.0000 -76.5000 80 983 hurdat_atl main 378 378 O_____________ hurdat_atl AL011961 14.0000 -76.5000 HU 80 983 1 17 284
1961199N11314 1961 63 NA CS ANNA 1961-07-22 09:00:00 TS 14.2272 -77.3501 main 392 370 P_____________ AL011961 14.2272 -77.3501 HU 85 979 2 17 287
1961199N11314 1961 63 NA CS ANNA 1961-07-22 12:00:00 TS 14.5000 -78.2000 90 976 hurdat_atl main 373 366 O_____________ hurdat_atl AL011961 14.5000 -78.2000 HU 90 976 2 18 290
1961199N11314 1961 63 NA CS ANNA 1961-07-22 15:00:00 TS 14.8298 -79.0647 main 377 343 P_____________ AL011961 14.8298 -79.0647 HU 87 979 2 18 290
1961199N11314 1961 63 NA CS ANNA 1961-07-22 18:00:00 TS 15.1000 -79.9000 85 hurdat_atl main 343 269 I_____________ hurdat_atl AL011961 15.1000 -79.9000 HU 85 983 2 16 283
1961199N11314 1961 63 NA CS ANNA 1961-07-22 21:00:00 TS 15.1871 -80.6655 main 258 183 P_____________ AL011961 15.1871 -80.6655 HU 77 986 1 15 274
1961199N11314 1961 63 NA CS ANNA 1961-07-23 00:00:00 TS 15.2000 -81.4000 70 990 hurdat_atl main 183 109 O_____________ hurdat_atl AL011961 15.2000 -81.4000 HU 70 990 1 14 271
1961199N11314 1961 63 NA CS ANNA 1961-07-23 03:00:00 TS 15.2198 -82.1578 main 99 39 P_____________ AL011961 15.2198 -82.1578 HU 70 990 1 15 274
1961199N11314 1961 63 NA CS ANNA 1961-07-23 06:00:00 TS 15.3000 -82.9000 70 hurdat_atl main 39 11 I_____________ hurdat_atl AL011961 15.3000 -82.9000 HU 70 991 1 14 283
1961199N11314 1961 63 NA CS ANNA 1961-07-23 09:00:00 TS 15.5347 -83.6072 main 15 0 P_____________ AL011961 15.5347 -83.6072 HU 70 991 1 14 290
1961199N11314 1961 63 NA CS ANNA 1961-07-23 12:00:00 TS 15.8000 -84.3000 70 992 hurdat_atl main 0 0 O_____________ hurdat_atl AL011961 15.8000 -84.3000 L HU 70 992 1 14 288
1961199N11314 1961 63 NA CS ANNA 1961-07-23 15:00:00 TS 15.9875 -85.0300 main 11 11 P_____________ AL011961 15.9875 -85.0300 HU 75 986 1 14 283
1961199N11314 1961 63 NA CS ANNA 1961-07-23 18:00:00 TS 16.1000 -85.7000 80 981 hurdat_atl main 22 22 O_____________ hurdat_atl AL011961 16.1000 -85.7000 HU 80 981 1 11 277
1961199N11314 1961 63 NA CS ANNA 1961-07-23 21:00:00 TS 16.1177 -86.1972 main 33 33 P_____________ AL011961 16.1177 -86.1972 HU 77 985 1 10 270
1961199N11314 1961 63 NA CS ANNA 1961-07-24 00:00:00 TS 16.1000 -86.7000 75 989 hurdat_atl main 39 33 O_____________ hurdat_atl AL011961 16.1000 -86.7000 HU 75 989 1 10 269
1961199N11314 1961 63 NA CS ANNA 1961-07-24 01:00:00 TS 16.1000 -86.9000 75 989 hurdat_atl main 33 33 O_____________ hurdat_atl AL011961 16.1000 -86.9000 L HU 75 989 1 10 272
1961199N11314 1961 63 NA CS ANNA 1961-07-24 03:00:00 TS 16.1178 -87.2364 main 33 33 P_____________ AL011961 16.1178 -87.2364 HU 75 1 9 277
1961199N11314 1961 63 NA CS ANNA 1961-07-24 06:00:00 TS 16.2000 -87.7000 75 hurdat_atl main 44 24 O_____________ hurdat_atl AL011961 16.2000 -87.7000 HU 75 1 11 282
1961199N11314 1961 63 NA CS ANNA 1961-07-24 09:00:00 TS 16.3465 -88.3349 main 24 0 P_____________ AL011961 16.3465 -88.3349 HU 75 1 12 285
1961199N11314 1961 63 NA CS ANNA 1961-07-24 10:00:00 TS 16.4000 -88.5000 75 hurdat_atl main 0 0 O_____________ hurdat_atl AL011961 16.4000 -88.5000 L HU 75 1 8 294
1961199N11314 1961 63 NA NA ANNA 1961-07-24 12:00:00 TS 16.5000 -88.7000 65 hurdat_atl main 0 0 O_____________ hurdat_atl AL011961 16.5000 -88.7000 HU 65 1 8 292
1961199N11314 1961 63 NA NA ANNA 1961-07-24 15:00:00 TS 16.6565 -89.1534 main 0 0 P_____________ AL011961 16.6565 -89.1534 HU 55 0 10 287
1961199N11314 1961 63 NA NA ANNA 1961-07-24 18:00:00 TS 16.8000 -89.7000 45 hurdat_atl main 0 0 O_____________ hurdat_atl AL011961 16.8000 -89.7000 TS 45 0 10 284
1961199N11314 1961 63 NA NA ANNA 1961-07-24 21:00:00 TS 16.9104 -90.2155 main 0 0 P_____________ AL011961 16.9104 -90.2155 TS 37 0 10 282
1961199N11314 1961 63 NA NA ANNA 1961-07-25 00:00:00 TS 17.0000 -90.7000 30 hurdat_atl main 0 O_____________ hurdat_atl AL011961 17.0000 -90.7000 TD 30 -1 9 281

IBTrACS Databaseについて

本データベースは、米国NOAAが公開する1842年以降の世界の熱帯低気圧のベストトラックデータアーカイブInternational Best Track Archive for Climate Stewardship (IBTrACS)を、ウェブで閲覧しやすい形式に変換したものです。

最終更新日:2021-10-21